sensor_id;sensor_type;location;lat;lon;timestamp;temperature;humidity
48488;DHT22;34289;48.572;13.378;2023-06-14T00:20:30;9.40;99.90
48488;DHT22;34289;48.572;13.378;2023-06-14T00:27:54;10.30;99.90
48488;DHT22;34289;48.572;13.378;2023-06-14T00:32:46;9.40;99.90
48488;DHT22;34289;48.572;13.378;2023-06-14T00:37:40;9.40;99.90
48488;DHT22;34289;48.572;13.378;2023-06-14T00:40:07;9.00;99.90
48488;DHT22;34289;48.572;13.378;2023-06-14T00:45:01;9.30;99.90
48488;DHT22;34289;48.572;13.378;2023-06-14T00:47:27;9.20;99.90
48488;DHT22;34289;48.572;13.378;2023-06-14T00:49:55;9.20;99.90
48488;DHT22;34289;48.572;13.378;2023-06-14T00:52:22;9.10;99.90
48488;DHT22;34289;48.572;13.378;2023-06-14T00:54:49;9.20;99.90
48488;DHT22;34289;48.572;13.378;2023-06-14T00:57:16;9.30;99.90
48488;DHT22;34289;48.572;13.378;2023-06-14T00:59:48;9.30;99.90
48488;DHT22;34289;48.572;13.378;2023-06-14T01:02:14;9.20;99.90
48488;DHT22;34289;48.572;13.378;2023-06-14T01:04:43;9.10;99.90
48488;DHT22;34289;48.572;13.378;2023-06-14T01:07:34;9.10;99.90
48488;DHT22;34289;48.572;13.378;2023-06-14T01:15:55;9.10;99.90
48488;DHT22;34289;48.572;13.378;2023-06-14T01:18:23;9.20;99.90
48488;DHT22;34289;48.572;13.378;2023-06-14T01:20:50;9.30;99.90
48488;DHT22;34289;48.572;13.378;2023-06-14T01:23:17;9.20;99.90
48488;DHT22;34289;48.572;13.378;2023-06-14T01:25:44;8.80;99.90
48488;DHT22;34289;48.572;13.378;2023-06-14T01:28:11;8.60;99.90
48488;DHT22;34289;48.572;13.378;2023-06-14T01:30:42;8.60;99.90
48488;DHT22;34289;48.572;13.378;2023-06-14T01:33:13;8.70;99.90
48488;DHT22;34289;48.572;13.378;2023-06-14T01:35:47;8.60;99.90
48488;DHT22;34289;48.572;13.378;2023-06-14T01:38:15;8.40;99.90
48488;DHT22;34289;48.572;13.378;2023-06-14T01:40:45;8.10;99.90
48488;DHT22;34289;48.572;13.378;2023-06-14T01:43:14;7.90;99.90
48488;DHT22;34289;48.572;13.378;2023-06-14T01:45:42;8.10;99.90
48488;DHT22;34289;48.572;13.378;2023-06-14T01:48:10;8.40;99.90
48488;DHT22;34289;48.572;13.378;2023-06-14T01:50:37;8.40;99.90
48488;DHT22;34289;48.572;13.378;2023-06-14T01:53:08;8.40;99.90
48488;DHT22;34289;48.572;13.378;2023-06-14T01:55:35;8.30;99.90
48488;DHT22;34289;48.572;13.378;2023-06-14T01:58:06;8.50;99.90
48488;DHT22;34289;48.572;13.378;2023-06-14T02:00:32;8.60;99.90
48488;DHT22;34289;48.572;13.378;2023-06-14T02:02:59;8.50;99.90
48488;DHT22;34289;48.572;13.378;2023-06-14T02:05:30;8.60;99.90
48488;DHT22;34289;48.572;13.378;2023-06-14T02:07:56;8.80;99.90
48488;DHT22;34289;48.572;13.378;2023-06-14T02:10:23;8.60;99.90
48488;DHT22;34289;48.572;13.378;2023-06-14T02:12:50;8.60;99.90
48488;DHT22;34289;48.572;13.378;2023-06-14T02:15:18;8.60;99.90
48488;DHT22;34289;48.572;13.378;2023-06-14T02:17:46;8.50;99.90
48488;DHT22;34289;48.572;13.378;2023-06-14T02:20:16;8.30;99.90
48488;DHT22;34289;48.572;13.378;2023-06-14T02:22:44;8.30;99.90
48488;DHT22;34289;48.572;13.378;2023-06-14T02:25:10;8.20;99.90
48488;DHT22;34289;48.572;13.378;2023-06-14T02:27:37;8.40;99.90
48488;DHT22;34289;48.572;13.378;2023-06-14T02:30:04;8.50;99.90
48488;DHT22;34289;48.572;13.378;2023-06-14T02:32:31;8.80;99.90
48488;DHT22;34289;48.572;13.378;2023-06-14T02:34:57;8.40;99.90
48488;DHT22;34289;48.572;13.378;2023-06-14T02:37:24;8.20;99.90
48488;DHT22;34289;48.572;13.378;2023-06-14T02:39:51;8.00;99.90
48488;DHT22;34289;48.572;13.378;2023-06-14T02:42:18;7.80;99.90
48488;DHT22;34289;48.572;13.378;2023-06-14T02:44:45;8.00;99.90
48488;DHT22;34289;48.572;13.378;2023-06-14T02:47:20;8.20;99.90
48488;DHT22;34289;48.572;13.378;2023-06-14T02:49:47;8.30;99.90
48488;DHT22;34289;48.572;13.378;2023-06-14T02:52:14;8.20;99.90
48488;DHT22;34289;48.572;13.378;2023-06-14T02:54:41;8.30;99.90
48488;DHT22;34289;48.572;13.378;2023-06-14T02:57:08;8.30;99.90
48488;DHT22;34289;48.572;13.378;2023-06-14T02:59:36;7.90;99.90
48488;DHT22;34289;48.572;13.378;2023-06-14T03:02:03;7.70;99.90
48488;DHT22;34289;48.572;13.378;2023-06-14T03:04:29;7.90;99.90
48488;DHT22;34289;48.572;13.378;2023-06-14T03:07:01;8.10;99.90
48488;DHT22;34289;48.572;13.378;2023-06-14T03:09:28;8.10;99.90
48488;DHT22;34289;48.572;13.378;2023-06-14T03:11:55;8.00;99.90
48488;DHT22;34289;48.572;13.378;2023-06-14T03:14:22;7.90;99.90
48488;DHT22;34289;48.572;13.378;2023-06-14T03:16:50;7.70;99.90
48488;DHT22;34289;48.572;13.378;2023-06-14T03:19:16;7.70;99.90
48488;DHT22;34289;48.572;13.378;2023-06-14T03:21:43;7.30;99.90
48488;DHT22;34289;48.572;13.378;2023-06-14T03:24:10;7.10;99.90
48488;DHT22;34289;48.572;13.378;2023-06-14T03:26:37;7.30;99.90
48488;DHT22;34289;48.572;13.378;2023-06-14T03:29:03;7.60;99.90
48488;DHT22;34289;48.572;13.378;2023-06-14T03:31:30;7.90;99.90
48488;DHT22;34289;48.572;13.378;2023-06-14T03:33:59;8.00;99.90
48488;DHT22;34289;48.572;13.378;2023-06-14T03:36:26;8.20;99.90
48488;DHT22;34289;48.572;13.378;2023-06-14T03:38:54;8.20;99.90
48488;DHT22;34289;48.572;13.378;2023-06-14T03:41:21;8.30;99.90
48488;DHT22;34289;48.572;13.378;2023-06-14T03:43:48;8.30;99.90
48488;DHT22;34289;48.572;13.378;2023-06-14T03:46:14;8.10;99.90
48488;DHT22;34289;48.572;13.378;2023-06-14T03:48:41;8.10;99.90
48488;DHT22;34289;48.572;13.378;2023-06-14T03:51:07;8.10;99.90
48488;DHT22;34289;48.572;13.378;2023-06-14T03:53:34;8.00;99.90
48488;DHT22;34289;48.572;13.378;2023-06-14T03:56:02;7.50;99.90
48488;DHT22;34289;48.572;13.378;2023-06-14T03:58:28;7.90;99.90
48488;DHT22;34289;48.572;13.378;2023-06-14T04:00:54;8.00;99.90
48488;DHT22;34289;48.572;13.378;2023-06-14T04:03:21;8.00;99.90
48488;DHT22;34289;48.572;13.378;2023-06-14T04:05:56;8.10;99.90
48488;DHT22;34289;48.572;13.378;2023-06-14T04:08:23;8.30;99.90
48488;DHT22;34289;48.572;13.378;2023-06-14T04:10:53;8.30;99.90
48488;DHT22;34289;48.572;13.378;2023-06-14T04:13:19;8.50;99.90
48488;DHT22;34289;48.572;13.378;2023-06-14T04:15:46;8.70;99.90
48488;DHT22;34289;48.572;13.378;2023-06-14T04:18:15;9.00;99.90
48488;DHT22;34289;48.572;13.378;2023-06-14T04:20:42;9.10;99.90
48488;DHT22;34289;48.572;13.378;2023-06-14T04:23:17;9.10;99.90
48488;DHT22;34289;48.572;13.378;2023-06-14T04:25:47;9.20;99.90
48488;DHT22;34289;48.572;13.378;2023-06-14T04:28:15;9.60;99.90
48488;DHT22;34289;48.572;13.378;2023-06-14T04:30:45;10.00;99.90
48488;DHT22;34289;48.572;13.378;2023-06-14T04:33:13;10.30;99.90
48488;DHT22;34289;48.572;13.378;2023-06-14T04:35:39;10.60;99.90
48488;DHT22;34289;48.572;13.378;2023-06-14T04:38:07;10.70;99.90
48488;DHT22;34289;48.572;13.378;2023-06-14T04:40:39;11.00;99.90
48488;DHT22;34289;48.572;13.378;2023-06-14T04:43:11;11.40;99.90
48488;DHT22;34289;48.572;13.378;2023-06-14T04:45:42;11.90;99.90
48488;DHT22;34289;48.572;13.378;2023-06-14T04:48:12;12.60;99.90
48488;DHT22;34289;48.572;13.378;2023-06-14T04:50:38;13.50;99.90
48488;DHT22;34289;48.572;13.378;2023-06-14T04:53:06;14.20;99.90
48488;DHT22;34289;48.572;13.378;2023-06-14T04:55:36;16.00;99.90
48488;DHT22;34289;48.572;13.378;2023-06-14T04:58:03;18.10;99.90
48488;DHT22;34289;48.572;13.378;2023-06-14T05:00:29;19.90;99.90
48488;DHT22;34289;48.572;13.378;2023-06-14T05:02:56;21.20;99.40
48488;DHT22;34289;48.572;13.378;2023-06-14T05:05:23;22.30;98.00
48488;DHT22;34289;48.572;13.378;2023-06-14T05:07:50;23.30;96.60
48488;DHT22;34289;48.572;13.378;2023-06-14T05:10:16;24.40;95.60
48488;DHT22;34289;48.572;13.378;2023-06-14T05:12:42;25.80;93.50
48488;DHT22;34289;48.572;13.378;2023-06-14T05:15:09;26.70;92.10
48488;DHT22;34289;48.572;13.378;2023-06-14T05:17:35;26.90;90.90
48488;DHT22;34289;48.572;13.378;2023-06-14T05:20:01;26.90;90.70
48488;DHT22;34289;48.572;13.378;2023-06-14T05:22:28;26.90;90.30
48488;DHT22;34289;48.572;13.378;2023-06-14T05:24:55;27.70;88.70
48488;DHT22;34289;48.572;13.378;2023-06-14T05:27:22;27.70;87.20
48488;DHT22;34289;48.572;13.378;2023-06-14T05:29:48;28.20;86.90
48488;DHT22;34289;48.572;13.378;2023-06-14T05:32:15;27.50;86.90
48488;DHT22;34289;48.572;13.378;2023-06-14T05:34:43;28.10;85.90
48488;DHT22;34289;48.572;13.378;2023-06-14T05:37:10;28.40;85.20
48488;DHT22;34289;48.572;13.378;2023-06-14T05:39:36;29.30;83.30
48488;DHT22;34289;48.572;13.378;2023-06-14T05:42:02;30.20;82.80
48488;DHT22;34289;48.572;13.378;2023-06-14T05:44:28;30.30;82.10
48488;DHT22;34289;48.572;13.378;2023-06-14T05:46:55;30.70;81.60
48488;DHT22;34289;48.572;13.378;2023-06-14T05:49:22;30.60;80.60
48488;DHT22;34289;48.572;13.378;2023-06-14T05:51:48;30.80;79.50
48488;DHT22;34289;48.572;13.378;2023-06-14T05:54:15;31.00;79.20
48488;DHT22;34289;48.572;13.378;2023-06-14T05:56:41;31.00;77.90
48488;DHT22;34289;48.572;13.378;2023-06-14T05:59:08;30.70;78.30
48488;DHT22;34289;48.572;13.378;2023-06-14T06:01:35;30.20;77.50
48488;DHT22;34289;48.572;13.378;2023-06-14T06:04:02;30.50;78.00
48488;DHT22;34289;48.572;13.378;2023-06-14T06:06:29;30.80;77.70
48488;DHT22;34289;48.572;13.378;2023-06-14T06:08:56;29.60;77.50
48488;DHT22;34289;48.572;13.378;2023-06-14T06:11:22;27.80;82.50
48488;DHT22;34289;48.572;13.378;2023-06-14T06:13:49;25.50;84.10
48488;DHT22;34289;48.572;13.378;2023-06-14T06:16:18;23.40;86.50
48488;DHT22;34289;48.572;13.378;2023-06-14T06:18:44;21.80;91.40
48488;DHT22;34289;48.572;13.378;2023-06-14T06:21:10;20.80;92.40
48488;DHT22;34289;48.572;13.378;2023-06-14T06:23:36;20.50;93.30
48488;DHT22;34289;48.572;13.378;2023-06-14T06:26:04;20.30;93.60
48488;DHT22;34289;48.572;13.378;2023-06-14T06:28:31;19.80;94.00
48488;DHT22;34289;48.572;13.378;2023-06-14T06:30:59;19.40;93.80
48488;DHT22;34289;48.572;13.378;2023-06-14T06:33:26;19.00;94.80
48488;DHT22;34289;48.572;13.378;2023-06-14T06:35:52;18.90;95.50
48488;DHT22;34289;48.572;13.378;2023-06-14T06:38:23;18.70;96.20
48488;DHT22;34289;48.572;13.378;2023-06-14T06:40:51;18.90;95.60
48488;DHT22;34289;48.572;13.378;2023-06-14T06:43:20;19.30;95.40
48488;DHT22;34289;48.572;13.378;2023-06-14T06:45:47;19.40;96.70
48488;DHT22;34289;48.572;13.378;2023-06-14T06:48:14;19.60;96.00
48488;DHT22;34289;48.572;13.378;2023-06-14T06:50:41;19.70;94.70
48488;DHT22;34289;48.572;13.378;2023-06-14T06:53:08;19.80;97.20
48488;DHT22;34289;48.572;13.378;2023-06-14T06:55:34;19.90;95.50
48488;DHT22;34289;48.572;13.378;2023-06-14T06:58:00;20.10;95.70
48488;DHT22;34289;48.572;13.378;2023-06-14T07:00:27;20.00;94.60
48488;DHT22;34289;48.572;13.378;2023-06-14T07:02:59;19.80;95.00
48488;DHT22;34289;48.572;13.378;2023-06-14T07:05:25;19.90;97.70
48488;DHT22;34289;48.572;13.378;2023-06-14T07:07:51;19.90;96.60
48488;DHT22;34289;48.572;13.378;2023-06-14T07:10:17;19.50;95.90
48488;DHT22;34289;48.572;13.378;2023-06-14T07:12:44;19.60;95.50
48488;DHT22;34289;48.572;13.378;2023-06-14T07:15:10;19.70;96.40
48488;DHT22;34289;48.572;13.378;2023-06-14T07:17:37;19.40;96.70
48488;DHT22;34289;48.572;13.378;2023-06-14T07:20:04;19.40;96.20
48488;DHT22;34289;48.572;13.378;2023-06-14T07:22:47;19.40;96.40
48488;DHT22;34289;48.572;13.378;2023-06-14T07:25:13;19.60;95.50
48488;DHT22;34289;48.572;13.378;2023-06-14T07:27:43;19.50;96.60
48488;DHT22;34289;48.572;13.378;2023-06-14T07:30:12;19.60;94.90
48488;DHT22;34289;48.572;13.378;2023-06-14T07:32:39;19.90;95.90
48488;DHT22;34289;48.572;13.378;2023-06-14T07:35:06;19.90;94.90
48488;DHT22;34289;48.572;13.378;2023-06-14T07:37:36;19.70;94.40
48488;DHT22;34289;48.572;13.378;2023-06-14T07:40:02;19.70;94.50
48488;DHT22;34289;48.572;13.378;2023-06-14T07:42:35;19.80;94.90
48488;DHT22;34289;48.572;13.378;2023-06-14T07:45:03;19.90;95.40
48488;DHT22;34289;48.572;13.378;2023-06-14T07:47:29;20.00;96.00
48488;DHT22;34289;48.572;13.378;2023-06-14T07:49:55;20.00;95.60
48488;DHT22;34289;48.572;13.378;2023-06-14T07:52:25;20.10;95.70
48488;DHT22;34289;48.572;13.378;2023-06-14T07:54:51;20.30;96.00
48488;DHT22;34289;48.572;13.378;2023-06-14T07:57:20;20.30;94.60
48488;DHT22;34289;48.572;13.378;2023-06-14T07:59:46;20.50;96.80
48488;DHT22;34289;48.572;13.378;2023-06-14T08:02:13;20.70;93.40
48488;DHT22;34289;48.572;13.378;2023-06-14T08:04:41;20.70;93.70
48488;DHT22;34289;48.572;13.378;2023-06-14T08:07:22;20.70;94.20
48488;DHT22;34289;48.572;13.378;2023-06-14T08:09:51;20.40;94.80
48488;DHT22;34289;48.572;13.378;2023-06-14T08:12:18;20.40;94.80
48488;DHT22;34289;48.572;13.378;2023-06-14T08:14:47;20.60;94.10
48488;DHT22;34289;48.572;13.378;2023-06-14T08:17:15;20.80;94.40
48488;DHT22;34289;48.572;13.378;2023-06-14T08:19:42;20.70;93.50
48488;DHT22;34289;48.572;13.378;2023-06-14T08:22:09;20.80;93.70
48488;DHT22;34289;48.572;13.378;2023-06-14T08:24:37;20.90;93.10
48488;DHT22;34289;48.572;13.378;2023-06-14T08:27:05;20.90;93.10
48488;DHT22;34289;48.572;13.378;2023-06-14T08:29:32;21.00;94.90
48488;DHT22;34289;48.572;13.378;2023-06-14T08:31:58;21.10;94.90
48488;DHT22;34289;48.572;13.378;2023-06-14T08:34:25;21.30;93.00
48488;DHT22;34289;48.572;13.378;2023-06-14T08:36:55;21.30;92.60
48488;DHT22;34289;48.572;13.378;2023-06-14T08:39:21;21.40;92.10
48488;DHT22;34289;48.572;13.378;2023-06-14T08:41:48;21.20;92.70
48488;DHT22;34289;48.572;13.378;2023-06-14T08:44:17;21.30;92.00
48488;DHT22;34289;48.572;13.378;2023-06-14T08:46:44;21.40;91.20
48488;DHT22;34289;48.572;13.378;2023-06-14T08:49:12;21.40;91.60
48488;DHT22;34289;48.572;13.378;2023-06-14T08:51:38;21.20;92.20
48488;DHT22;34289;48.572;13.378;2023-06-14T08:54:10;21.60;92.40
48488;DHT22;34289;48.572;13.378;2023-06-14T08:56:38;21.80;92.10
48488;DHT22;34289;48.572;13.378;2023-06-14T08:59:11;21.70;90.40
48488;DHT22;34289;48.572;13.378;2023-06-14T09:01:40;21.80;91.20
48488;DHT22;34289;48.572;13.378;2023-06-14T09:04:18;21.80;90.30
48488;DHT22;34289;48.572;13.378;2023-06-14T09:06:46;21.50;90.70
48488;DHT22;34289;48.572;13.378;2023-06-14T09:09:12;21.40;91.80
48488;DHT22;34289;48.572;13.378;2023-06-14T09:11:43;21.70;93.10
48488;DHT22;34289;48.572;13.378;2023-06-14T09:14:10;21.90;91.80
48488;DHT22;34289;48.572;13.378;2023-06-14T09:16:38;21.80;90.30
48488;DHT22;34289;48.572;13.378;2023-06-14T09:19:07;21.80;90.00
48488;DHT22;34289;48.572;13.378;2023-06-14T09:21:36;22.00;91.40
48488;DHT22;34289;48.572;13.378;2023-06-14T09:24:03;22.50;91.40
48488;DHT22;34289;48.572;13.378;2023-06-14T09:26:30;22.70;90.90
48488;DHT22;34289;48.572;13.378;2023-06-14T09:28:56;22.60;90.60
48488;DHT22;34289;48.572;13.378;2023-06-14T09:31:23;22.30;90.40
48488;DHT22;34289;48.572;13.378;2023-06-14T09:33:54;22.30;91.20
48488;DHT22;34289;48.572;13.378;2023-06-14T09:36:25;22.70;92.40
48488;DHT22;34289;48.572;13.378;2023-06-14T09:39:02;22.90;91.30
48488;DHT22;34289;48.572;13.378;2023-06-14T09:41:34;22.40;90.10
48488;DHT22;34289;48.572;13.378;2023-06-14T09:44:14;22.40;91.20
48488;DHT22;34289;48.572;13.378;2023-06-14T09:46:56;22.80;88.40
48488;DHT22;34289;48.572;13.378;2023-06-14T09:49:27;22.50;86.80
48488;DHT22;34289;48.572;13.378;2023-06-14T09:51:53;22.40;87.60
48488;DHT22;34289;48.572;13.378;2023-06-14T09:54:29;22.70;88.40
48488;DHT22;34289;48.572;13.378;2023-06-14T09:57:13;22.90;90.00
48488;DHT22;34289;48.572;13.378;2023-06-14T09:59:42;23.10;87.20
48488;DHT22;34289;48.572;13.378;2023-06-14T10:07:38;23.60;90.30
48488;DHT22;34289;48.572;13.378;2023-06-14T10:10:06;23.80;90.10
48488;DHT22;34289;48.572;13.378;2023-06-14T10:12:33;23.30;91.30
48488;DHT22;34289;48.572;13.378;2023-06-14T10:15:00;23.00;88.70
48488;DHT22;34289;48.572;13.378;2023-06-14T10:17:47;23.10;87.50
48488;DHT22;34289;48.572;13.378;2023-06-14T10:20:29;22.90;87.40
48488;DHT22;34289;48.572;13.378;2023-06-14T10:23:01;23.00;88.40
48488;DHT22;34289;48.572;13.378;2023-06-14T10:25:30;23.60;87.60
48488;DHT22;34289;48.572;13.378;2023-06-14T10:28:19;23.90;83.80
48488;DHT22;34289;48.572;13.378;2023-06-14T10:31:08;23.60;87.50
48488;DHT22;34289;48.572;13.378;2023-06-14T10:33:50;22.90;85.80
48488;DHT22;34289;48.572;13.378;2023-06-14T10:39:03;22.20;87.40
48488;DHT22;34289;48.572;13.378;2023-06-14T10:41:32;21.70;88.40
48488;DHT22;34289;48.572;13.378;2023-06-14T10:46:46;21.50;90.00
48488;DHT22;34289;48.572;13.378;2023-06-14T10:49:16;21.50;89.80
48488;DHT22;34289;48.572;13.378;2023-06-14T10:51:51;21.90;90.10
48488;DHT22;34289;48.572;13.378;2023-06-14T10:54:22;22.20;88.80
48488;DHT22;34289;48.572;13.378;2023-06-14T10:56:59;22.40;88.50
48488;DHT22;34289;48.572;13.378;2023-06-14T10:59:25;22.70;90.80
48488;DHT22;34289;48.572;13.378;2023-06-14T11:04:47;23.00;90.00
48488;DHT22;34289;48.572;13.378;2023-06-14T11:08:04;23.10;88.70
48488;DHT22;34289;48.572;13.378;2023-06-14T11:10:41;22.80;90.90
48488;DHT22;34289;48.572;13.378;2023-06-14T11:13:10;22.80;88.20
48488;DHT22;34289;48.572;13.378;2023-06-14T11:15:39;23.10;90.00
48488;DHT22;34289;48.572;13.378;2023-06-14T11:18:09;23.20;89.30
48488;DHT22;34289;48.572;13.378;2023-06-14T11:20:40;23.10;84.60
48488;DHT22;34289;48.572;13.378;2023-06-14T11:23:05;22.90;87.00
48488;DHT22;34289;48.572;13.378;2023-06-14T11:25:32;23.10;89.60
48488;DHT22;34289;48.572;13.378;2023-06-14T11:27:58;23.50;87.50
48488;DHT22;34289;48.572;13.378;2023-06-14T11:30:27;23.80;82.50
48488;DHT22;34289;48.572;13.378;2023-06-14T11:32:54;24.00;83.80
48488;DHT22;34289;48.572;13.378;2023-06-14T11:35:24;23.70;81.80
48488;DHT22;34289;48.572;13.378;2023-06-14T11:37:56;22.90;84.10
48488;DHT22;34289;48.572;13.378;2023-06-14T11:40:26;23.00;82.10
48488;DHT22;34289;48.572;13.378;2023-06-14T11:43:08;22.90;83.90
48488;DHT22;34289;48.572;13.378;2023-06-14T11:45:43;22.90;85.80
48488;DHT22;34289;48.572;13.378;2023-06-14T11:48:18;23.30;85.60
48488;DHT22;34289;48.572;13.378;2023-06-14T11:50:49;23.50;84.00
48488;DHT22;34289;48.572;13.378;2023-06-14T11:53:15;23.40;84.50
48488;DHT22;34289;48.572;13.378;2023-06-14T11:55:44;23.50;83.90
48488;DHT22;34289;48.572;13.378;2023-06-14T11:58:24;23.10;85.20
48488;DHT22;34289;48.572;13.378;2023-06-14T12:00:55;22.90;84.90
48488;DHT22;34289;48.572;13.378;2023-06-14T12:03:28;22.80;85.10
48488;DHT22;34289;48.572;13.378;2023-06-14T12:06:08;22.80;88.70
48488;DHT22;34289;48.572;13.378;2023-06-14T12:08:37;22.80;84.80
48488;DHT22;34289;48.572;13.378;2023-06-14T12:11:12;22.90;84.90
48488;DHT22;34289;48.572;13.378;2023-06-14T12:13:42;23.10;86.10
48488;DHT22;34289;48.572;13.378;2023-06-14T12:16:12;23.10;87.20
48488;DHT22;34289;48.572;13.378;2023-06-14T12:18:39;23.40;85.80
48488;DHT22;34289;48.572;13.378;2023-06-14T12:21:09;23.50;84.80
48488;DHT22;34289;48.572;13.378;2023-06-14T12:23:49;23.10;85.40
48488;DHT22;34289;48.572;13.378;2023-06-14T12:26:20;23.10;84.60
48488;DHT22;34289;48.572;13.378;2023-06-14T12:28:51;23.10;86.40
48488;DHT22;34289;48.572;13.378;2023-06-14T12:31:27;23.00;84.40
48488;DHT22;34289;48.572;13.378;2023-06-14T12:33:57;22.80;84.00
48488;DHT22;34289;48.572;13.378;2023-06-14T12:36:28;23.00;83.90
48488;DHT22;34289;48.572;13.378;2023-06-14T12:38:55;22.70;86.60
48488;DHT22;34289;48.572;13.378;2023-06-14T12:41:30;22.60;85.50
48488;DHT22;34289;48.572;13.378;2023-06-14T12:43:56;22.70;85.80
48488;DHT22;34289;48.572;13.378;2023-06-14T12:46:27;23.10;87.30
48488;DHT22;34289;48.572;13.378;2023-06-14T12:48:54;23.80;86.20
48488;DHT22;34289;48.572;13.378;2023-06-14T12:51:20;24.50;87.70
48488;DHT22;34289;48.572;13.378;2023-06-14T12:53:45;24.40;82.90
48488;DHT22;34289;48.572;13.378;2023-06-14T12:56:14;24.00;83.10
48488;DHT22;34289;48.572;13.378;2023-06-14T12:58:39;24.10;86.00
48488;DHT22;34289;48.572;13.378;2023-06-14T13:01:08;24.30;83.30
48488;DHT22;34289;48.572;13.378;2023-06-14T13:03:44;23.80;82.10
48488;DHT22;34289;48.572;13.378;2023-06-14T13:06:10;24.00;85.50
48488;DHT22;34289;48.572;13.378;2023-06-14T13:08:35;24.40;87.40
48488;DHT22;34289;48.572;13.378;2023-06-14T13:11:01;25.00;85.80
48488;DHT22;34289;48.572;13.378;2023-06-14T13:13:26;25.30;84.10
48488;DHT22;34289;48.572;13.378;2023-06-14T13:15:52;24.90;82.00
48488;DHT22;34289;48.572;13.378;2023-06-14T13:18:18;24.30;84.10
48488;DHT22;34289;48.572;13.378;2023-06-14T13:20:45;24.60;84.90
48488;DHT22;34289;48.572;13.378;2023-06-14T13:23:10;24.90;86.80
48488;DHT22;34289;48.572;13.378;2023-06-14T13:25:37;25.10;83.90
48488;DHT22;34289;48.572;13.378;2023-06-14T13:28:04;25.40;84.00
48488;DHT22;34289;48.572;13.378;2023-06-14T13:30:30;25.60;83.00
48488;DHT22;34289;48.572;13.378;2023-06-14T13:32:56;25.70;81.60
48488;DHT22;34289;48.572;13.378;2023-06-14T13:35:23;25.60;79.70
48488;DHT22;34289;48.572;13.378;2023-06-14T13:37:48;25.50;75.20
48488;DHT22;34289;48.572;13.378;2023-06-14T13:40:14;25.30;80.20
48488;DHT22;34289;48.572;13.378;2023-06-14T13:42:40;25.30;77.70
48488;DHT22;34289;48.572;13.378;2023-06-14T13:45:07;25.10;80.60
48488;DHT22;34289;48.572;13.378;2023-06-14T13:47:33;25.20;80.40
48488;DHT22;34289;48.572;13.378;2023-06-14T13:49:58;25.40;82.10
48488;DHT22;34289;48.572;13.378;2023-06-14T13:52:25;25.50;79.10
48488;DHT22;34289;48.572;13.378;2023-06-14T13:54:50;25.40;78.40
48488;DHT22;34289;48.572;13.378;2023-06-14T13:57:17;25.50;79.70
48488;DHT22;34289;48.572;13.378;2023-06-14T13:59:43;25.70;80.70
48488;DHT22;34289;48.572;13.378;2023-06-14T14:02:10;25.60;78.70
48488;DHT22;34289;48.572;13.378;2023-06-14T14:04:37;25.40;79.40
48488;DHT22;34289;48.572;13.378;2023-06-14T14:07:04;24.60;78.50
48488;DHT22;34289;48.572;13.378;2023-06-14T14:09:30;24.00;81.60
48488;DHT22;34289;48.572;13.378;2023-06-14T14:11:56;23.80;83.80
48488;DHT22;34289;48.572;13.378;2023-06-14T14:14:21;23.80;83.30
48488;DHT22;34289;48.572;13.378;2023-06-14T14:16:49;23.80;82.00
48488;DHT22;34289;48.572;13.378;2023-06-14T14:19:17;23.70;82.90
48488;DHT22;34289;48.572;13.378;2023-06-14T14:21:44;23.70;83.60
48488;DHT22;34289;48.572;13.378;2023-06-14T14:24:10;23.80;86.20
48488;DHT22;34289;48.572;13.378;2023-06-14T14:26:35;24.00;86.70
48488;DHT22;34289;48.572;13.378;2023-06-14T14:29:01;24.10;85.30
48488;DHT22;34289;48.572;13.378;2023-06-14T14:31:28;24.30;87.30
48488;DHT22;34289;48.572;13.378;2023-06-14T14:33:53;24.50;82.80
48488;DHT22;34289;48.572;13.378;2023-06-14T14:36:19;24.50;82.50
48488;DHT22;34289;48.572;13.378;2023-06-14T14:38:45;24.30;84.70
48488;DHT22;34289;48.572;13.378;2023-06-14T14:41:12;24.40;84.10
48488;DHT22;34289;48.572;13.378;2023-06-14T14:43:38;24.50;83.50
48488;DHT22;34289;48.572;13.378;2023-06-14T14:46:03;24.80;83.50
48488;DHT22;34289;48.572;13.378;2023-06-14T14:48:29;25.00;84.60
48488;DHT22;34289;48.572;13.378;2023-06-14T14:50:54;25.20;82.80
48488;DHT22;34289;48.572;13.378;2023-06-14T14:53:20;25.30;82.80
48488;DHT22;34289;48.572;13.378;2023-06-14T14:55:46;25.30;80.10
48488;DHT22;34289;48.572;13.378;2023-06-14T14:58:12;25.10;80.90
48488;DHT22;34289;48.572;13.378;2023-06-14T15:00:38;24.90;83.40
48488;DHT22;34289;48.572;13.378;2023-06-14T15:03:04;25.10;84.30
48488;DHT22;34289;48.572;13.378;2023-06-14T15:05:30;24.70;82.20
48488;DHT22;34289;48.572;13.378;2023-06-14T15:07:55;24.70;85.00
48488;DHT22;34289;48.572;13.378;2023-06-14T15:10:24;24.40;79.40
48488;DHT22;34289;48.572;13.378;2023-06-14T15:12:49;24.10;81.00
48488;DHT22;34289;48.572;13.378;2023-06-14T15:15:15;23.80;83.90
48488;DHT22;34289;48.572;13.378;2023-06-14T15:17:41;23.90;84.20
48488;DHT22;34289;48.572;13.378;2023-06-14T15:20:07;23.60;79.10
48488;DHT22;34289;48.572;13.378;2023-06-14T15:22:33;23.50;81.70
48488;DHT22;34289;48.572;13.378;2023-06-14T15:24:59;23.40;81.80
48488;DHT22;34289;48.572;13.378;2023-06-14T15:27:25;23.30;82.30
48488;DHT22;34289;48.572;13.378;2023-06-14T15:29:51;23.40;82.70
48488;DHT22;34289;48.572;13.378;2023-06-14T15:32:16;23.50;80.80
48488;DHT22;34289;48.572;13.378;2023-06-14T15:34:42;23.50;80.90
48488;DHT22;34289;48.572;13.378;2023-06-14T15:37:07;23.20;82.50
48488;DHT22;34289;48.572;13.378;2023-06-14T15:39:34;23.20;81.00
48488;DHT22;34289;48.572;13.378;2023-06-14T15:42:00;23.10;82.40
48488;DHT22;34289;48.572;13.378;2023-06-14T15:44:26;23.20;82.50
48488;DHT22;34289;48.572;13.378;2023-06-14T15:46:52;23.50;84.40
48488;DHT22;34289;48.572;13.378;2023-06-14T15:49:17;23.70;81.90
48488;DHT22;34289;48.572;13.378;2023-06-14T15:51:44;23.70;82.40
48488;DHT22;34289;48.572;13.378;2023-06-14T15:54:10;24.10;84.40
48488;DHT22;34289;48.572;13.378;2023-06-14T15:56:36;24.40;80.60
48488;DHT22;34289;48.572;13.378;2023-06-14T15:59:02;24.40;81.30
48488;DHT22;34289;48.572;13.378;2023-06-14T16:01:28;24.50;80.50
48488;DHT22;34289;48.572;13.378;2023-06-14T16:03:53;24.60;80.90
48488;DHT22;34289;48.572;13.378;2023-06-14T16:06:21;24.00;80.50
48488;DHT22;34289;48.572;13.378;2023-06-14T16:08:47;24.10;81.30
48488;DHT22;34289;48.572;13.378;2023-06-14T16:11:14;24.00;81.20
48488;DHT22;34289;48.572;13.378;2023-06-14T16:13:42;24.00;79.70
48488;DHT22;34289;48.572;13.378;2023-06-14T16:16:09;23.80;80.50
48488;DHT22;34289;48.572;13.378;2023-06-14T16:18:35;23.80;80.70